sensor_id;sensor_type;location;lat;lon;timestamp;P1;durP1;ratioP1;P2;durP2;ratioP2
38117;SDS011;23928;47.562;7.508;2024-02-21T00:00:40;9.23;;;4.20;;
38117;SDS011;23928;47.562;7.508;2024-02-21T00:03:06;6.97;;;3.80;;
38117;SDS011;23928;47.562;7.508;2024-02-21T00:05:32;9.20;;;4.50;;
38117;SDS011;23928;47.562;7.508;2024-02-21T00:07:58;8.43;;;3.47;;
38117;SDS011;23928;47.562;7.508;2024-02-21T00:10:24;10.23;;;4.20;;
38117;SDS011;23928;47.562;7.508;2024-02-21T00:12:50;5.80;;;3.20;;
38117;SDS011;23928;47.562;7.508;2024-02-21T00:15:16;6.07;;;3.10;;
38117;SDS011;23928;47.562;7.508;2024-02-21T00:17:43;6.87;;;3.20;;
38117;SDS011;23928;47.562;7.508;2024-02-21T00:20:09;5.93;;;2.87;;
38117;SDS011;23928;47.562;7.508;2024-02-21T00:22:35;9.70;;;3.33;;
38117;SDS011;23928;47.562;7.508;2024-02-21T00:25:01;7.73;;;3.40;;
38117;SDS011;23928;47.562;7.508;2024-02-21T00:27:26;7.07;;;3.63;;
38117;SDS011;23928;47.562;7.508;2024-02-21T00:29:53;9.33;;;4.17;;
38117;SDS011;23928;47.562;7.508;2024-02-21T00:32:18;8.57;;;4.43;;
38117;SDS011;23928;47.562;7.508;2024-02-21T00:34:44;9.63;;;5.17;;
38117;SDS011;23928;47.562;7.508;2024-02-21T00:37:09;9.27;;;4.40;;
38117;SDS011;23928;47.562;7.508;2024-02-21T00:39:35;9.20;;;4.93;;
38117;SDS011;23928;47.562;7.508;2024-02-21T00:42:02;6.57;;;3.70;;
38117;SDS011;23928;47.562;7.508;2024-02-21T00:44:28;6.23;;;3.47;;
38117;SDS011;23928;47.562;7.508;2024-02-21T00:46:53;6.97;;;3.60;;
38117;SDS011;23928;47.562;7.508;2024-02-21T00:49:19;8.07;;;3.23;;
38117;SDS011;23928;47.562;7.508;2024-02-21T00:51:44;5.83;;;3.40;;
38117;SDS011;23928;47.562;7.508;2024-02-21T00:54:10;6.40;;;3.27;;
38117;SDS011;23928;47.562;7.508;2024-02-21T00:56:36;7.57;;;3.33;;
38117;SDS011;23928;47.562;7.508;2024-02-21T00:59:01;7.73;;;4.17;;
38117;SDS011;23928;47.562;7.508;2024-02-21T01:01:27;7.53;;;3.60;;
38117;SDS011;23928;47.562;7.508;2024-02-21T01:03:53;10.07;;;4.10;;
38117;SDS011;23928;47.562;7.508;2024-02-21T01:06:21;10.30;;;4.10;;
38117;SDS011;23928;47.562;7.508;2024-02-21T01:08:48;10.43;;;4.63;;
38117;SDS011;23928;47.562;7.508;2024-02-21T01:11:14;10.53;;;4.60;;
38117;SDS011;23928;47.562;7.508;2024-02-21T01:13:40;6.93;;;3.70;;
38117;SDS011;23928;47.562;7.508;2024-02-21T01:16:06;11.43;;;4.30;;
38117;SDS011;23928;47.562;7.508;2024-02-21T01:18:34;8.60;;;3.70;;
38117;SDS011;23928;47.562;7.508;2024-02-21T01:21:02;7.87;;;3.80;;
38117;SDS011;23928;47.562;7.508;2024-02-21T01:23:31;7.70;;;3.87;;
38117;SDS011;23928;47.562;7.508;2024-02-21T01:26:01;7.70;;;3.70;;
38117;SDS011;23928;47.562;7.508;2024-02-21T01:28:27;11.03;;;4.33;;
38117;SDS011;23928;47.562;7.508;2024-02-21T01:30:52;6.80;;;3.20;;
38117;SDS011;23928;47.562;7.508;2024-02-21T01:33:18;7.53;;;3.33;;
38117;SDS011;23928;47.562;7.508;2024-02-21T01:35:44;5.90;;;3.07;;
38117;SDS011;23928;47.562;7.508;2024-02-21T01:38:09;7.97;;;3.57;;
38117;SDS011;23928;47.562;7.508;2024-02-21T01:40:35;8.80;;;3.20;;
38117;SDS011;23928;47.562;7.508;2024-02-21T01:43:02;7.73;;;3.70;;
38117;SDS011;23928;47.562;7.508;2024-02-21T01:45:28;4.90;;;3.20;;
38117;SDS011;23928;47.562;7.508;2024-02-21T01:47:53;9.00;;;3.20;;
38117;SDS011;23928;47.562;7.508;2024-02-21T01:50:19;5.37;;;3.50;;
38117;SDS011;23928;47.562;7.508;2024-02-21T01:52:47;8.43;;;3.80;;
38117;SDS011;23928;47.562;7.508;2024-02-21T01:55:14;9.23;;;3.87;;
38117;SDS011;23928;47.562;7.508;2024-02-21T01:57:41;12.10;;;4.47;;
38117;SDS011;23928;47.562;7.508;2024-02-21T02:00:10;8.93;;;3.83;;
38117;SDS011;23928;47.562;7.508;2024-02-21T02:02:38;7.13;;;5.07;;
38117;SDS011;23928;47.562;7.508;2024-02-21T02:05:05;7.90;;;3.73;;
38117;SDS011;23928;47.562;7.508;2024-02-21T02:07:32;13.80;;;3.67;;
38117;SDS011;23928;47.562;7.508;2024-02-21T02:09:58;9.60;;;3.30;;
38117;SDS011;23928;47.562;7.508;2024-02-21T02:12:24;9.07;;;3.60;;
38117;SDS011;23928;47.562;7.508;2024-02-21T02:15:02;7.77;;;3.30;;
38117;SDS011;23928;47.562;7.508;2024-02-21T02:17:31;8.77;;;3.67;;
38117;SDS011;23928;47.562;7.508;2024-02-21T02:19:56;7.23;;;3.60;;
38117;SDS011;23928;47.562;7.508;2024-02-21T02:22:22;5.40;;;3.03;;
38117;SDS011;23928;47.562;7.508;2024-02-21T02:24:53;6.97;;;3.17;;
38117;SDS011;23928;47.562;7.508;2024-02-21T02:27:19;5.63;;;3.00;;
38117;SDS011;23928;47.562;7.508;2024-02-21T02:29:44;8.57;;;3.50;;
38117;SDS011;23928;47.562;7.508;2024-02-21T02:32:10;10.53;;;4.03;;
38117;SDS011;23928;47.562;7.508;2024-02-21T02:34:37;7.70;;;2.90;;
38117;SDS011;23928;47.562;7.508;2024-02-21T02:37:02;4.47;;;3.07;;
38117;SDS011;23928;47.562;7.508;2024-02-21T02:39:28;5.00;;;3.30;;
38117;SDS011;23928;47.562;7.508;2024-02-21T02:41:53;8.23;;;3.47;;
38117;SDS011;23928;47.562;7.508;2024-02-21T02:44:19;6.50;;;3.40;;
38117;SDS011;23928;47.562;7.508;2024-02-21T02:46:45;8.77;;;3.10;;
38117;SDS011;23928;47.562;7.508;2024-02-21T02:49:10;5.50;;;3.13;;
38117;SDS011;23928;47.562;7.508;2024-02-21T02:51:36;8.27;;;3.50;;
38117;SDS011;23928;47.562;7.508;2024-02-21T02:54:02;11.43;;;3.67;;
38117;SDS011;23928;47.562;7.508;2024-02-21T02:56:28;4.87;;;3.27;;
38117;SDS011;23928;47.562;7.508;2024-02-21T02:58:53;8.27;;;2.90;;
38117;SDS011;23928;47.562;7.508;2024-02-21T03:01:19;6.80;;;3.27;;
38117;SDS011;23928;47.562;7.508;2024-02-21T03:03:44;6.07;;;3.37;;
38117;SDS011;23928;47.562;7.508;2024-02-21T03:06:12;5.77;;;3.20;;
38117;SDS011;23928;47.562;7.508;2024-02-21T03:08:38;6.30;;;3.30;;
38117;SDS011;23928;47.562;7.508;2024-02-21T03:11:04;5.87;;;3.07;;
38117;SDS011;23928;47.562;7.508;2024-02-21T03:13:30;9.40;;;3.60;;
38117;SDS011;23928;47.562;7.508;2024-02-21T03:15:56;7.40;;;3.13;;
38117;SDS011;23928;47.562;7.508;2024-02-21T03:18:21;5.87;;;3.43;;
38117;SDS011;23928;47.562;7.508;2024-02-21T03:20:47;4.93;;;3.30;;
38117;SDS011;23928;47.562;7.508;2024-02-21T03:23:13;6.70;;;3.77;;
38117;SDS011;23928;47.562;7.508;2024-02-21T03:25:38;4.73;;;2.80;;
38117;SDS011;23928;47.562;7.508;2024-02-21T03:28:04;8.47;;;3.27;;
38117;SDS011;23928;47.562;7.508;2024-02-21T03:30:30;7.97;;;3.67;;
38117;SDS011;23928;47.562;7.508;2024-02-21T03:32:55;8.87;;;4.37;;
38117;SDS011;23928;47.562;7.508;2024-02-21T03:35:21;5.67;;;3.17;;
38117;SDS011;23928;47.562;7.508;2024-02-21T03:37:46;10.17;;;3.83;;
38117;SDS011;23928;47.562;7.508;2024-02-21T03:40:12;4.47;;;2.93;;
38117;SDS011;23928;47.562;7.508;2024-02-21T03:42:38;7.00;;;3.17;;
38117;SDS011;23928;47.562;7.508;2024-02-21T03:45:04;8.63;;;3.33;;
38117;SDS011;23928;47.562;7.508;2024-02-21T03:47:30;7.93;;;4.17;;
38117;SDS011;23928;47.562;7.508;2024-02-21T03:49:55;7.17;;;3.90;;
38117;SDS011;23928;47.562;7.508;2024-02-21T03:52:21;13.73;;;4.20;;
38117;SDS011;23928;47.562;7.508;2024-02-21T03:54:47;5.87;;;3.60;;
38117;SDS011;23928;47.562;7.508;2024-02-21T03:57:13;9.30;;;4.27;;
38117;SDS011;23928;47.562;7.508;2024-02-21T03:59:38;5.43;;;3.67;;
38117;SDS011;23928;47.562;7.508;2024-02-21T04:02:05;7.07;;;3.70;;
38117;SDS011;23928;47.562;7.508;2024-02-21T04:04:33;9.87;;;3.90;;
38117;SDS011;23928;47.562;7.508;2024-02-21T04:07:02;12.73;;;3.67;;
38117;SDS011;23928;47.562;7.508;2024-02-21T04:09:32;6.93;;;3.70;;
38117;SDS011;23928;47.562;7.508;2024-02-21T04:11:59;8.80;;;3.67;;
38117;SDS011;23928;47.562;7.508;2024-02-21T04:14:25;7.70;;;3.30;;
38117;SDS011;23928;47.562;7.508;2024-02-21T04:16:51;7.63;;;3.80;;
38117;SDS011;23928;47.562;7.508;2024-02-21T04:19:17;7.63;;;3.67;;
38117;SDS011;23928;47.562;7.508;2024-02-21T04:21:42;7.90;;;3.43;;
38117;SDS011;23928;47.562;7.508;2024-02-21T04:24:08;5.77;;;3.47;;
38117;SDS011;23928;47.562;7.508;2024-02-21T04:26:34;5.93;;;3.20;;
38117;SDS011;23928;47.562;7.508;2024-02-21T04:28:59;8.23;;;3.57;;
38117;SDS011;23928;47.562;7.508;2024-02-21T04:31:25;9.07;;;3.47;;
38117;SDS011;23928;47.562;7.508;2024-02-21T04:33:50;8.43;;;4.97;;
38117;SDS011;23928;47.562;7.508;2024-02-21T04:36:16;6.73;;;3.03;;
38117;SDS011;23928;47.562;7.508;2024-02-21T04:38:42;6.57;;;3.67;;
38117;SDS011;23928;47.562;7.508;2024-02-21T04:41:07;7.30;;;3.03;;
38117;SDS011;23928;47.562;7.508;2024-02-21T04:43:33;7.70;;;3.00;;
38117;SDS011;23928;47.562;7.508;2024-02-21T04:45:59;8.47;;;3.30;;
38117;SDS011;23928;47.562;7.508;2024-02-21T04:48:25;6.27;;;2.97;;
38117;SDS011;23928;47.562;7.508;2024-02-21T04:50:50;8.37;;;3.20;;
38117;SDS011;23928;47.562;7.508;2024-02-21T04:53:16;7.13;;;3.17;;
38117;SDS011;23928;47.562;7.508;2024-02-21T04:55:42;4.83;;;3.17;;
38117;SDS011;23928;47.562;7.508;2024-02-21T04:58:08;4.70;;;3.20;;
38117;SDS011;23928;47.562;7.508;2024-02-21T05:00:33;6.50;;;3.17;;
38117;SDS011;23928;47.562;7.508;2024-02-21T05:02:59;5.13;;;3.17;;
38117;SDS011;23928;47.562;7.508;2024-02-21T05:05:25;4.57;;;2.93;;
38117;SDS011;23928;47.562;7.508;2024-02-21T05:07:50;7.90;;;3.20;;
38117;SDS011;23928;47.562;7.508;2024-02-21T05:10:16;8.73;;;3.33;;
38117;SDS011;23928;47.562;7.508;2024-02-21T05:12:42;8.80;;;3.90;;
38117;SDS011;23928;47.562;7.508;2024-02-21T05:15:08;7.67;;;3.80;;
38117;SDS011;23928;47.562;7.508;2024-02-21T05:17:34;5.63;;;3.50;;
38117;SDS011;23928;47.562;7.508;2024-02-21T05:19:59;6.83;;;3.37;;
38117;SDS011;23928;47.562;7.508;2024-02-21T05:22:25;5.63;;;3.30;;
38117;SDS011;23928;47.562;7.508;2024-02-21T05:24:50;8.57;;;3.90;;
38117;SDS011;23928;47.562;7.508;2024-02-21T05:27:16;6.93;;;4.30;;
38117;SDS011;23928;47.562;7.508;2024-02-21T05:29:41;5.90;;;4.30;;
38117;SDS011;23928;47.562;7.508;2024-02-21T05:32:07;8.60;;;3.63;;
38117;SDS011;23928;47.562;7.508;2024-02-21T05:34:33;9.13;;;3.80;;
38117;SDS011;23928;47.562;7.508;2024-02-21T05:36:58;6.33;;;4.27;;
38117;SDS011;23928;47.562;7.508;2024-02-21T05:39:25;8.07;;;3.97;;
38117;SDS011;23928;47.562;7.508;2024-02-21T05:41:51;7.83;;;3.77;;
38117;SDS011;23928;47.562;7.508;2024-02-21T05:44:17;4.83;;;3.30;;
38117;SDS011;23928;47.562;7.508;2024-02-21T05:46:43;8.90;;;4.00;;
38117;SDS011;23928;47.562;7.508;2024-02-21T05:49:08;7.30;;;3.20;;
38117;SDS011;23928;47.562;7.508;2024-02-21T05:51:34;5.83;;;3.60;;
38117;SDS011;23928;47.562;7.508;2024-02-21T05:54:00;6.30;;;2.97;;
38117;SDS011;23928;47.562;7.508;2024-02-21T05:56:26;5.30;;;3.33;;
38117;SDS011;23928;47.562;7.508;2024-02-21T05:58:51;4.70;;;3.10;;
38117;SDS011;23928;47.562;7.508;2024-02-21T06:01:17;5.17;;;3.10;;
38117;SDS011;23928;47.562;7.508;2024-02-21T06:03:43;4.30;;;2.87;;
38117;SDS011;23928;47.562;7.508;2024-02-21T06:06:08;5.70;;;3.20;;
38117;SDS011;23928;47.562;7.508;2024-02-21T06:08:34;4.03;;;3.10;;
38117;SDS011;23928;47.562;7.508;2024-02-21T06:10:59;5.73;;;3.43;;
38117;SDS011;23928;47.562;7.508;2024-02-21T06:13:25;4.83;;;3.30;;
38117;SDS011;23928;47.562;7.508;2024-02-21T06:15:51;6.33;;;3.20;;
38117;SDS011;23928;47.562;7.508;2024-02-21T06:18:17;6.07;;;3.50;;
38117;SDS011;23928;47.562;7.508;2024-02-21T06:20:43;6.60;;;3.10;;
38117;SDS011;23928;47.562;7.508;2024-02-21T06:23:08;8.67;;;3.67;;
38117;SDS011;23928;47.562;7.508;2024-02-21T06:25:34;5.47;;;3.13;;
38117;SDS011;23928;47.562;7.508;2024-02-21T06:28:00;5.07;;;3.37;;
38117;SDS011;23928;47.562;7.508;2024-02-21T06:30:25;6.97;;;3.40;;
38117;SDS011;23928;47.562;7.508;2024-02-21T06:32:51;5.63;;;3.63;;
38117;SDS011;23928;47.562;7.508;2024-02-21T06:35:17;6.93;;;4.43;;
38117;SDS011;23928;47.562;7.508;2024-02-21T06:37:43;4.87;;;3.60;;
38117;SDS011;23928;47.562;7.508;2024-02-21T06:40:10;7.77;;;3.87;;
38117;SDS011;23928;47.562;7.508;2024-02-21T06:42:36;8.60;;;3.77;;
38117;SDS011;23928;47.562;7.508;2024-02-21T06:45:01;7.60;;;4.57;;
38117;SDS011;23928;47.562;7.508;2024-02-21T06:47:27;8.27;;;3.90;;
38117;SDS011;23928;47.562;7.508;2024-02-21T06:49:53;7.20;;;3.77;;
38117;SDS011;23928;47.562;7.508;2024-02-21T06:52:18;5.87;;;3.50;;
38117;SDS011;23928;47.562;7.508;2024-02-21T06:54:47;5.67;;;3.50;;
38117;SDS011;23928;47.562;7.508;2024-02-21T06:57:13;8.77;;;3.93;;
38117;SDS011;23928;47.562;7.508;2024-02-21T06:59:40;7.87;;;3.70;;
38117;SDS011;23928;47.562;7.508;2024-02-21T07:02:06;6.13;;;3.50;;
38117;SDS011;23928;47.562;7.508;2024-02-21T07:04:32;5.13;;;3.03;;
38117;SDS011;23928;47.562;7.508;2024-02-21T07:06:57;6.50;;;3.27;;
38117;SDS011;23928;47.562;7.508;2024-02-21T07:09:23;6.17;;;3.90;;
38117;SDS011;23928;47.562;7.508;2024-02-21T07:11:48;8.10;;;3.63;;
38117;SDS011;23928;47.562;7.508;2024-02-21T07:14:14;6.27;;;3.80;;
38117;SDS011;23928;47.562;7.508;2024-02-21T07:16:40;6.77;;;3.80;;
38117;SDS011;23928;47.562;7.508;2024-02-21T07:19:06;6.53;;;4.27;;
38117;SDS011;23928;47.562;7.508;2024-02-21T07:21:32;10.00;;;5.00;;
38117;SDS011;23928;47.562;7.508;2024-02-21T07:23:57;7.73;;;4.93;;
38117;SDS011;23928;47.562;7.508;2024-02-21T07:26:23;7.73;;;4.43;;
38117;SDS011;23928;47.562;7.508;2024-02-21T07:28:49;10.80;;;4.70;;
38117;SDS011;23928;47.562;7.508;2024-02-21T07:31:14;7.63;;;4.57;;
38117;SDS011;23928;47.562;7.508;2024-02-21T07:33:40;7.83;;;4.10;;
38117;SDS011;23928;47.562;7.508;2024-02-21T07:36:06;8.33;;;4.50;;
38117;SDS011;23928;47.562;7.508;2024-02-21T07:38:33;8.03;;;4.47;;
38117;SDS011;23928;47.562;7.508;2024-02-21T07:40:59;9.13;;;5.10;;
38117;SDS011;23928;47.562;7.508;2024-02-21T07:43:24;10.40;;;5.23;;
38117;SDS011;23928;47.562;7.508;2024-02-21T07:45:51;12.33;;;5.23;;
38117;SDS011;23928;47.562;7.508;2024-02-21T07:48:18;13.10;;;6.73;;
38117;SDS011;23928;47.562;7.508;2024-02-21T07:50:44;19.97;;;9.57;;
38117;SDS011;23928;47.562;7.508;2024-02-21T07:53:09;47.67;;;23.43;;
38117;SDS011;23928;47.562;7.508;2024-02-21T07:55:35;114.80;;;44.40;;
38117;SDS011;23928;47.562;7.508;2024-02-21T07:58:01;124.20;;;51.60;;
38117;SDS011;23928;47.562;7.508;2024-02-21T08:00:26;118.20;;;48.00;;
38117;SDS011;23928;47.562;7.508;2024-02-21T08:02:52;41.47;;;19.23;;
38117;SDS011;23928;47.562;7.508;2024-02-21T08:05:18;47.67;;;22.00;;
38117;SDS011;23928;47.562;7.508;2024-02-21T08:07:43;26.27;;;12.43;;
38117;SDS011;23928;47.562;7.508;2024-02-21T08:10:09;9.40;;;4.30;;
38117;SDS011;23928;47.562;7.508;2024-02-21T08:12:35;7.03;;;4.33;;
38117;SDS011;23928;47.562;7.508;2024-02-21T08:15:01;6.00;;;3.40;;
38117;SDS011;23928;47.562;7.508;2024-02-21T08:17:30;20.70;;;12.00;;
38117;SDS011;23928;47.562;7.508;2024-02-21T08:19:56;62.87;;;34.33;;
38117;SDS011;23928;47.562;7.508;2024-02-21T08:22:21;36.87;;;22.03;;
38117;SDS011;23928;47.562;7.508;2024-02-21T08:24:47;24.43;;;14.03;;
38117;SDS011;23928;47.562;7.508;2024-02-21T08:27:13;21.60;;;11.33;;
38117;SDS011;23928;47.562;7.508;2024-02-21T08:29:38;25.40;;;14.60;;
38117;SDS011;23928;47.562;7.508;2024-02-21T08:32:04;12.00;;;6.77;;
38117;SDS011;23928;47.562;7.508;2024-02-21T08:34:29;12.43;;;6.60;;
38117;SDS011;23928;47.562;7.508;2024-02-21T08:36:58;9.67;;;5.17;;
38117;SDS011;23928;47.562;7.508;2024-02-21T08:39:24;10.90;;;4.47;;
38117;SDS011;23928;47.562;7.508;2024-02-21T08:41:51;8.93;;;4.13;;
38117;SDS011;23928;47.562;7.508;2024-02-21T08:44:16;13.13;;;6.20;;
38117;SDS011;23928;47.562;7.508;2024-02-21T08:46:42;9.90;;;5.60;;
38117;SDS011;23928;47.562;7.508;2024-02-21T08:49:07;11.80;;;6.73;;
38117;SDS011;23928;47.562;7.508;2024-02-21T08:51:35;9.70;;;5.27;;
38117;SDS011;23928;47.562;7.508;2024-02-21T08:54:00;14.60;;;8.53;;
38117;SDS011;23928;47.562;7.508;2024-02-21T08:56:27;8.33;;;4.67;;
38117;SDS011;23928;47.562;7.508;2024-02-21T08:58:55;12.30;;;5.00;;
38117;SDS011;23928;47.562;7.508;2024-02-21T09:01:20;9.57;;;5.77;;
38117;SDS011;23928;47.562;7.508;2024-02-21T09:03:47;12.17;;;4.60;;
38117;SDS011;23928;47.562;7.508;2024-02-21T09:06:12;8.93;;;5.60;;
38117;SDS011;23928;47.562;7.508;2024-02-21T09:08:39;9.47;;;4.40;;
38117;SDS011;23928;47.562;7.508;2024-02-21T09:11:05;9.57;;;4.47;;
38117;SDS011;23928;47.562;7.508;2024-02-21T09:13:31;6.80;;;4.20;;
38117;SDS011;23928;47.562;7.508;2024-02-21T09:15:57;8.63;;;5.17;;
38117;SDS011;23928;47.562;7.508;2024-02-21T09:18:22;7.07;;;4.40;;
38117;SDS011;23928;47.562;7.508;2024-02-21T09:20:48;8.40;;;4.63;;
38117;SDS011;23928;47.562;7.508;2024-02-21T09:23:13;7.67;;;3.70;;
38117;SDS011;23928;47.562;7.508;2024-02-21T09:25:39;8.83;;;4.33;;
38117;SDS011;23928;47.562;7.508;2024-02-21T09:28:05;10.60;;;4.30;;
38117;SDS011;23928;47.562;7.508;2024-02-21T09:30:34;11.97;;;3.70;;
38117;SDS011;23928;47.562;7.508;2024-02-21T09:33:00;11.17;;;3.80;;
38117;SDS011;23928;47.562;7.508;2024-02-21T09:35:27;11.80;;;4.57;;
38117;SDS011;23928;47.562;7.508;2024-02-21T09:37:53;6.33;;;3.53;;
38117;SDS011;23928;47.562;7.508;2024-02-21T09:40:19;5.97;;;3.97;;
38117;SDS011;23928;47.562;7.508;2024-02-21T09:42:46;8.63;;;3.80;;
38117;SDS011;23928;47.562;7.508;2024-02-21T09:45:22;9.83;;;3.70;;
38117;SDS011;23928;47.562;7.508;2024-02-21T09:48:08;7.20;;;3.77;;
38117;SDS011;23928;47.562;7.508;2024-02-21T09:50:43;6.23;;;3.40;;
38117;SDS011;23928;47.562;7.508;2024-02-21T09:53:09;7.73;;;4.20;;
38117;SDS011;23928;47.562;7.508;2024-02-21T09:55:38;6.53;;;3.33;;
38117;SDS011;23928;47.562;7.508;2024-02-21T09:58:05;8.70;;;3.80;;
38117;SDS011;23928;47.562;7.508;2024-02-21T10:00:32;8.70;;;3.30;;
38117;SDS011;23928;47.562;7.508;2024-02-21T10:02:58;5.10;;;3.40;;
38117;SDS011;23928;47.562;7.508;2024-02-21T10:05:24;8.63;;;3.50;;
38117;SDS011;23928;47.562;7.508;2024-02-21T10:07:50;5.60;;;3.40;;
38117;SDS011;23928;47.562;7.508;2024-02-21T10:10:16;6.27;;;3.03;;
38117;SDS011;23928;47.562;7.508;2024-02-21T10:12:52;8.37;;;3.63;;
38117;SDS011;23928;47.562;7.508;2024-02-21T10:15:21;6.73;;;3.37;;
38117;SDS011;23928;47.562;7.508;2024-02-21T10:17:48;7.13;;;3.67;;
38117;SDS011;23928;47.562;7.508;2024-02-21T10:20:13;4.93;;;3.23;;
38117;SDS011;23928;47.562;7.508;2024-02-21T10:22:40;7.67;;;3.57;;
38117;SDS011;23928;47.562;7.508;2024-02-21T10:25:09;6.57;;;3.30;;
38117;SDS011;23928;47.562;7.508;2024-02-21T10:27:36;5.93;;;2.97;;
38117;SDS011;23928;47.562;7.508;2024-02-21T10:30:02;5.20;;;2.80;;
38117;SDS011;23928;47.562;7.508;2024-02-21T10:32:29;8.00;;;3.07;;
38117;SDS011;23928;47.562;7.508;2024-02-21T10:35:02;7.13;;;3.33;;
38117;SDS011;23928;47.562;7.508;2024-02-21T10:37:33;6.00;;;3.03;;
38117;SDS011;23928;47.562;7.508;2024-02-21T10:40:00;4.53;;;3.07;;
38117;SDS011;23928;47.562;7.508;2024-02-21T10:42:28;5.33;;;2.50;;
38117;SDS011;23928;47.562;7.508;2024-02-21T10:45:00;5.70;;;2.77;;
38117;SDS011;23928;47.562;7.508;2024-02-21T10:47:29;6.27;;;2.90;;
38117;SDS011;23928;47.562;7.508;2024-02-21T10:49:57;6.67;;;2.50;;
38117;SDS011;23928;47.562;7.508;2024-02-21T10:55:26;5.20;;;3.00;;
38117;SDS011;23928;47.562;7.508;2024-02-21T10:57:58;4.97;;;2.63;;
38117;SDS011;23928;47.562;7.508;2024-02-21T11:00:24;6.40;;;2.53;;
38117;SDS011;23928;47.562;7.508;2024-02-21T11:02:55;7.07;;;2.97;;
38117;SDS011;23928;47.562;7.508;2024-02-21T11:05:24;6.63;;;2.90;;
38117;SDS011;23928;47.562;7.508;2024-02-21T11:07:52;6.93;;;3.60;;
38117;SDS011;23928;47.562;7.508;2024-02-21T11:10:25;7.73;;;3.53;;
38117;SDS011;23928;47.562;7.508;2024-02-21T11:15:33;6.20;;;2.93;;
38117;SDS011;23928;47.562;7.508;2024-02-21T11:17:58;9.60;;;3.60;;
38117;SDS011;23928;47.562;7.508;2024-02-21T11:20:37;8.53;;;3.00;;
38117;SDS011;23928;47.562;7.508;2024-02-21T11:23:03;6.73;;;2.60;;
38117;SDS011;23928;47.562;7.508;2024-02-21T11:25:30;7.87;;;2.67;;
38117;SDS011;23928;47.562;7.508;2024-02-21T11:28:03;4.70;;;2.67;;
38117;SDS011;23928;47.562;7.508;2024-02-21T11:30:30;9.43;;;3.17;;
38117;SDS011;23928;47.562;7.508;2024-02-21T11:33:05;5.70;;;3.40;;
38117;SDS011;23928;47.562;7.508;2024-02-21T11:35:34;10.50;;;3.83;;
38117;SDS011;23928;47.562;7.508;2024-02-21T11:38:07;11.17;;;4.50;;
38117;SDS011;23928;47.562;7.508;2024-02-21T11:40:39;4.90;;;2.57;;
38117;SDS011;23928;47.562;7.508;2024-02-21T11:43:06;5.87;;;3.20;;
38117;SDS011;23928;47.562;7.508;2024-02-21T11:45:32;5.20;;;3.30;;
38117;SDS011;23928;47.562;7.508;2024-02-21T11:47:58;6.40;;;3.20;;
38117;SDS011;23928;47.562;7.508;2024-02-21T11:50:30;7.77;;;3.20;;
38117;SDS011;23928;47.562;7.508;2024-02-21T11:52:56;6.03;;;2.90;;
38117;SDS011;23928;47.562;7.508;2024-02-21T11:55:22;4.50;;;3.27;;
38117;SDS011;23928;47.562;7.508;2024-02-21T11:57:48;5.77;;;3.03;;
38117;SDS011;23928;47.562;7.508;2024-02-21T12:00:17;8.57;;;3.23;;
38117;SDS011;23928;47.562;7.508;2024-02-21T12:02:47;7.50;;;4.10;;
38117;SDS011;23928;47.562;7.508;2024-02-21T12:05:13;8.20;;;2.80;;
38117;SDS011;23928;47.562;7.508;2024-02-21T12:07:39;6.60;;;3.00;;
38117;SDS011;23928;47.562;7.508;2024-02-21T12:10:09;6.90;;;2.70;;
38117;SDS011;23928;47.562;7.508;2024-02-21T12:12:36;4.67;;;2.37;;
38117;SDS011;23928;47.562;7.508;2024-02-21T12:15:03;10.40;;;3.00;;
38117;SDS011;23928;47.562;7.508;2024-02-21T12:17:29;7.67;;;2.50;;
38117;SDS011;23928;47.562;7.508;2024-02-21T12:19:56;7.23;;;2.90;;
38117;SDS011;23928;47.562;7.508;2024-02-21T12:22:22;4.60;;;2.70;;
38117;SDS011;23928;47.562;7.508;2024-02-21T12:24:48;5.97;;;3.17;;
38117;SDS011;23928;47.562;7.508;2024-02-21T12:27:14;4.07;;;2.30;;
38117;SDS011;23928;47.562;7.508;2024-02-21T12:29:39;3.27;;;2.00;;
38117;SDS011;23928;47.562;7.508;2024-02-21T12:32:05;3.47;;;1.77;;
38117;SDS011;23928;47.562;7.508;2024-02-21T12:34:30;4.10;;;1.97;;
38117;SDS011;23928;47.562;7.508;2024-02-21T12:37:01;3.70;;;1.90;;
38117;SDS011;23928;47.562;7.508;2024-02-21T12:39:28;5.40;;;2.00;;
38117;SDS011;23928;47.562;7.508;2024-02-21T12:41:54;3.20;;;1.97;;
38117;SDS011;23928;47.562;7.508;2024-02-21T12:44:21;3.33;;;1.80;;
38117;SDS011;23928;47.562;7.508;2024-02-21T12:46:47;4.53;;;2.13;;
38117;SDS011;23928;47.562;7.508;2024-02-21T12:49:17;2.13;;;1.70;;
38117;SDS011;23928;47.562;7.508;2024-02-21T12:51:43;6.40;;;2.33;;
38117;SDS011;23928;47.562;7.508;2024-02-21T12:54:08;3.67;;;1.87;;
38117;SDS011;23928;47.562;7.508;2024-02-21T12:56:36;6.00;;;2.73;;
38117;SDS011;23928;47.562;7.508;2024-02-21T12:59:02;4.43;;;2.10;;
38117;SDS011;23928;47.562;7.508;2024-02-21T13:01:27;5.47;;;2.40;;
38117;SDS011;23928;47.562;7.508;2024-02-21T13:03:53;5.60;;;2.30;;
38117;SDS011;23928;47.562;7.508;2024-02-21T13:06:19;4.50;;;2.07;;
38117;SDS011;23928;47.562;7.508;2024-02-21T13:08:44;4.70;;;2.10;;
38117;SDS011;23928;47.562;7.508;2024-02-21T13:11:11;4.20;;;2.20;;
38117;SDS011;23928;47.562;7.508;2024-02-21T13:13:37;5.73;;;2.47;;
38117;SDS011;23928;47.562;7.508;2024-02-21T13:16:03;2.27;;;1.80;;
38117;SDS011;23928;47.562;7.508;2024-02-21T13:18:29;3.30;;;2.00;;
38117;SDS011;23928;47.562;7.508;2024-02-21T13:20:55;4.00;;;1.80;;
38117;SDS011;23928;47.562;7.508;2024-02-21T13:23:20;5.37;;;2.63;;
38117;SDS011;23928;47.562;7.508;2024-02-21T13:25:46;5.73;;;2.30;;
38117;SDS011;23928;47.562;7.508;2024-02-21T13:28:12;6.07;;;2.73;;
38117;SDS011;23928;47.562;7.508;2024-02-21T13:30:39;2.43;;;1.73;;
38117;SDS011;23928;47.562;7.508;2024-02-21T13:33:06;3.60;;;2.13;;
38117;SDS011;23928;47.562;7.508;2024-02-21T13:35:32;4.23;;;2.17;;
38117;SDS011;23928;47.562;7.508;2024-02-21T13:37:57;5.07;;;2.00;;
38117;SDS011;23928;47.562;7.508;2024-02-21T13:40:23;4.37;;;2.30;;
38117;SDS011;23928;47.562;7.508;2024-02-21T13:42:50;4.23;;;2.17;;
38117;SDS011;23928;47.562;7.508;2024-02-21T13:45:16;3.67;;;2.00;;
38117;SDS011;23928;47.562;7.508;2024-02-21T13:47:42;3.30;;;1.77;;
38117;SDS011;23928;47.562;7.508;2024-02-21T13:50:07;2.90;;;2.10;;
38117;SDS011;23928;47.562;7.508;2024-02-21T13:52:36;2.87;;;1.70;;
38117;SDS011;23928;47.562;7.508;2024-02-21T13:55:02;4.67;;;2.03;;
38117;SDS011;23928;47.562;7.508;2024-02-21T13:57:28;2.77;;;1.80;;
38117;SDS011;23928;47.562;7.508;2024-02-21T13:59:54;3.00;;;1.97;;
38117;SDS011;23928;47.562;7.508;2024-02-21T14:02:19;3.23;;;1.87;;
38117;SDS011;23928;47.562;7.508;2024-02-21T14:04:46;5.03;;;2.10;;
38117;SDS011;23928;47.562;7.508;2024-02-21T14:07:12;5.97;;;2.13;;
38117;SDS011;23928;47.562;7.508;2024-02-21T14:09:37;3.50;;;1.90;;
38117;SDS011;23928;47.562;7.508;2024-02-21T14:12:03;9.27;;;2.90;;
38117;SDS011;23928;47.562;7.508;2024-02-21T14:14:32;11.13;;;2.60;;
38117;SDS011;23928;47.562;7.508;2024-02-21T14:16:59;4.07;;;2.60;;
38117;SDS011;23928;47.562;7.508;2024-02-21T14:19:25;3.70;;;2.00;;
38117;SDS011;23928;47.562;7.508;2024-02-21T14:21:51;11.63;;;2.93;;
38117;SDS011;23928;47.562;7.508;2024-02-21T14:24:16;14.93;;;3.20;;
38117;SDS011;23928;47.562;7.508;2024-02-21T14:26:42;8.37;;;2.90;;
38117;SDS011;23928;47.562;7.508;2024-02-21T14:29:07;9.00;;;2.00;;
38117;SDS011;23928;47.562;7.508;2024-02-21T14:31:33;5.43;;;2.00;;
38117;SDS011;23928;47.562;7.508;2024-02-21T14:33:59;13.13;;;3.20;;
38117;SDS011;23928;47.562;7.508;2024-02-21T14:36:26;4.40;;;3.07;;
38117;SDS011;23928;47.562;7.508;2024-02-21T14:38:51;9.87;;;2.30;;
38117;SDS011;23928;47.562;7.508;2024-02-21T14:41:17;6.83;;;2.53;;
38117;SDS011;23928;47.562;7.508;2024-02-21T14:43:43;5.53;;;2.40;;
38117;SDS011;23928;47.562;7.508;2024-02-21T14:46:09;5.73;;;2.30;;